^^
Meteo Knjazevac Station Historical Data
Daily Summary for January 17, 2022 Units:  Both    English   Metric
Daily Weekly Monthly Yearly Custom
  High: Low: Average:
Temperature: 46.8 °F /  8.2 °C 27.9 °F /  -2.3 °C 37.4 °F /  3 °C
Dew Point: 36.9 °F /  2.7 °C 24 °F /  -4.4 °C 30.4 °F /  -0.9 °C
Humidity: 94% 60% 77%
Wind Speed: 10mph /  16.1km/h - 4.8mph /  7.7km/h
Wind Gust: 21mph /  33.8km/h - -
Wind- - SW
Pressure: 30.33 in /  1027 hPa 30.12 in /  1019.9 hPa -
Precipitation: 0.04 in /  1.02 mm    
Historical Graphs
 
 
Tabular Data for January 17, 2022
Time Temperature Dew Point Pressure Wind Wind Speed Wind Gust Humidity Rainfall Rate (Hourly) solar Conditions
00:00 28.2 °F /  -2.1 °C 24.6 °F /  -4.1 °C 30.23in /  1023.6hPa NNW 1mph /  1.6km/h 2mph /  3.2km/h 86% 0.00in /  0mm 0 W/m2
00:10 28.2 °F /  -2.1 °C 24.6 °F /  -4.1 °C 30.23in /  1023.6hPa North 3mph /  4.8km/h 6mph /  9.7km/h 86% 0.00in /  0mm 0 W/m2
00:20 28.2 °F /  -2.1 °C 24.6 °F /  -4.1 °C 30.23in /  1023.6hPa NNW 2mph /  3.2km/h 4mph /  6.4km/h 86% 0.00in /  0mm 0 W/m2
00:30 28 °F /  -2.2 °C 24.4 °F /  -4.2 °C 30.23in /  1023.6hPa NNW 1mph /  1.6km/h 4mph /  6.4km/h 86% 0.00in /  0mm 0 W/m2
00:40 27.9 °F /  -2.3 °C 24.2 °F /  -4.3 °C 30.23in /  1023.6hPa Calm   3mph /  4.8km/h 86% 0.00in /  0mm 0 W/m2
00:50 27.9 °F /  -2.3 °C 24.2 °F /  -4.3 °C 30.23in /  1023.6hPa NW 1mph /  1.6km/h 4mph /  6.4km/h 86% 0.00in /  0mm 0 W/m2
01:00 28 °F /  -2.2 °C 24.4 °F /  -4.2 °C 30.23in /  1023.6hPa NW 1mph /  1.6km/h 4mph /  6.4km/h 86% 0.00in /  0mm 0 W/m2
01:10 28.2 °F /  -2.1 °C 24.3 °F /  -4.3 °C 30.24in /  1023.9hPa WNW 2mph /  3.2km/h 4mph /  6.4km/h 85% 0.00in /  0mm 0 W/m2
01:20 28.4 °F /  -2 °C 24.5 °F /  -4.2 °C 30.24in /  1023.9hPa West 1mph /  1.6km/h 4mph /  6.4km/h 85% 0.00in /  0mm 0 W/m2
01:30 28.4 °F /  -2 °C 24.5 °F /  -4.2 °C 30.24in /  1023.9hPa Calm   3mph /  4.8km/h 85% 0.00in /  0mm 0 W/m2
01:40 28.8 °F /  -1.8 °C 24.8 °F /  -4 °C 30.24in /  1023.9hPa SSE 1mph /  1.6km/h 6mph /  9.7km/h 85% 0.00in /  0mm 0 W/m2
01:50 29.1 °F /  -1.6 °C 25.2 °F /  -3.8 °C 30.24in /  1023.9hPa ENE 3mph /  4.8km/h 5mph /  8km/h 85% 0.00in /  0mm 0 W/m2
02:00 29.6 °F /  -1.3 °C 25.4 °F /  -3.7 °C 30.24in /  1023.9hPa ENE 1mph /  1.6km/h 8mph /  12.9km/h 84% 0.00in /  0mm 0 W/m2
02:10 29.8 °F /  -1.2 °C 25.3 °F /  -3.7 °C 30.24in /  1023.9hPa SE 2mph /  3.2km/h 6mph /  9.7km/h 83% 0.00in /  0mm 0 W/m2
02:20 30 °F /  -1.1 °C 25.5 °F /  -3.6 °C 30.24in /  1023.9hPa SSE 1mph /  1.6km/h 5mph /  8km/h 83% 0.00in /  0mm 0 W/m2
02:30 29.7 °F /  -1.3 °C 25.1 °F /  -3.8 °C 30.24in /  1023.9hPa NW 1mph /  1.6km/h 3mph /  4.8km/h 83% 0.00in /  0mm 0 W/m2
02:40 29.7 °F /  -1.3 °C 25.1 °F /  -3.8 °C 30.24in /  1023.9hPa SSW 1mph /  1.6km/h 5mph /  8km/h 83% 0.00in /  0mm 0 W/m2
02:50 29.7 °F /  -1.3 °C 25.1 °F /  -3.8 °C 30.25in /  1024.3hPa West 1mph /  1.6km/h 4mph /  6.4km/h 83% 0.00in /  0mm 0 W/m2
03:00 29.5 °F /  -1.4 °C 25 °F /  -3.9 °C 30.25in /  1024.3hPa SW 1mph /  1.6km/h 5mph /  8km/h 83% 0.00in /  0mm 0 W/m2
03:10 29.5 °F /  -1.4 °C 25 °F /  -3.9 °C 30.25in /  1024.3hPa NW 1mph /  1.6km/h 3mph /  4.8km/h 83% 0.00in /  0mm 0 W/m2
03:20 29 °F /  -1.7 °C 24.4 °F /  -4.2 °C 30.25in /  1024.3hPa West 3mph /  4.8km/h 6mph /  9.7km/h 83% 0.00in /  0mm 0 W/m2
03:30 29.3 °F /  -1.5 °C 25.4 °F /  -3.7 °C 30.24in /  1023.9hPa WSW 2mph /  3.2km/h 5mph /  8km/h 85% 0.00in /  0mm 0 W/m2
03:40 29.3 °F /  -1.5 °C 25.1 °F /  -3.8 °C 30.25in /  1024.3hPa West 2mph /  3.2km/h 4mph /  6.4km/h 84% 0.00in /  0mm 0 W/m2
03:50 28.9 °F /  -1.7 °C 25 °F /  -3.9 °C 30.25in /  1024.3hPa NNW 3mph /  4.8km/h 5mph /  8km/h 85% 0.00in /  0mm 0 W/m2
04:00 28.8 °F /  -1.8 °C 24.5 °F /  -4.2 °C 30.25in /  1024.3hPa Calm   5mph /  8km/h 84% 0.00in /  0mm 0 W/m2
04:10 28.2 °F /  -2.1 °C 24 °F /  -4.4 °C 30.26in /  1024.6hPa NNW 2mph /  3.2km/h 3mph /  4.8km/h 84% 0.00in /  0mm 0 W/m2
04:20 28.4 °F /  -2 °C 24.5 °F /  -4.2 °C 30.25in /  1024.3hPa NNW 1mph /  1.6km/h 5mph /  8km/h 85% 0.00in /  0mm 0 W/m2
04:30 28.8 °F /  -1.8 °C 25.1 °F /  -3.8 °C 30.25in /  1024.3hPa NW 3mph /  4.8km/h 8mph /  12.9km/h 86% 0.00in /  0mm 0 W/m2
04:40 28.9 °F /  -1.7 °C 24.7 °F /  -4.1 °C 30.25in /  1024.3hPa NE 6mph /  9.7km/h 10mph /  16.1km/h 84% 0.00in /  0mm 0 W/m2
04:50 29.1 °F /  -1.6 °C 24.6 °F /  -4.1 °C 30.25in /  1024.3hPa ENE 5mph /  8km/h 9mph /  14.5km/h 83% 0.00in /  0mm 0 W/m2
05:00 29.3 °F /  -1.5 °C 24.8 °F /  -4 °C 30.25in /  1024.3hPa NNE 1mph /  1.6km/h 7mph /  11.3km/h 83% 0.00in /  0mm 0 W/m2
05:10 29.5 °F /  -1.4 °C 25 °F /  -3.9 °C 30.26in /  1024.6hPa NNE 3mph /  4.8km/h 5mph /  8km/h 83% 0.00in /  0mm 0 W/m2
05:20 30.2 °F /  -1 °C 25.7 °F /  -3.5 °C 30.26in /  1024.6hPa NE 2mph /  3.2km/h 6mph /  9.7km/h 83% 0.00in /  0mm 0 W/m2
05:30 30.6 °F /  -0.8 °C 25.4 °F /  -3.7 °C 30.26in /  1024.6hPa NE 5mph /  8km/h 7mph /  11.3km/h 81% 0.00in /  0mm 0 W/m2
05:40 31.1 °F /  -0.5 °C 26.5 °F /  -3.1 °C 30.27in /  1024.9hPa SE 2mph /  3.2km/h 9mph /  14.5km/h 83% 0.00in /  0mm 0 W/m2
05:50 31.5 °F /  -0.3 °C 26.9 °F /  -2.8 °C 30.27in /  1024.9hPa SW 2mph /  3.2km/h 7mph /  11.3km/h 83% 0.00in /  0mm 0 W/m2
06:00 31.8 °F /  -0.1 °C 26.7 °F /  -2.9 °C 30.27in /  1024.9hPa SSW 1mph /  1.6km/h 5mph /  8km/h 81% 0.00in /  0mm 0 W/m2
06:10 32 °F /  0 °C 26.8 °F /  -2.9 °C 30.27in /  1024.9hPa SSW 5mph /  8km/h 8mph /  12.9km/h 81% 0.00in /  0mm 0 W/m2
06:20 32 °F /  0 °C 26.5 °F /  -3.1 °C 30.27in /  1024.9hPa SSE 2mph /  3.2km/h 6mph /  9.7km/h 80% 0.00in /  0mm 0 W/m2
06:30 32 °F /  0 °C 26.5 °F /  -3.1 °C 30.27in /  1024.9hPa SSW 2mph /  3.2km/h 10mph /  16.1km/h 80% 0.00in /  0mm 0 W/m2
06:40 32.2 °F /  0.1 °C 26.7 °F /  -2.9 °C 30.27in /  1024.9hPa SW 5mph /  8km/h 9mph /  14.5km/h 80% 0.00in /  0mm 0 W/m2
06:50 32.4 °F /  0.2 °C 27.2 °F /  -2.7 °C 30.27in /  1024.9hPa SW 6mph /  9.7km/h 10mph /  16.1km/h 81% 0.00in /  0mm 0 W/m2
07:00 32.2 °F /  0.1 °C 27 °F /  -2.8 °C 30.27in /  1024.9hPa West 6mph /  9.7km/h 9mph /  14.5km/h 81% 0.00in /  0mm 3 W/m2
07:10 32.2 °F /  0.1 °C 27 °F /  -2.8 °C 30.27in /  1024.9hPa WSW 5mph /  8km/h 9mph /  14.5km/h 81% 0.00in /  0mm 8 W/m2
07:20 32.2 °F /  0.1 °C 27.6 °F /  -2.4 °C 30.28in /  1025.3hPa WSW 6mph /  9.7km/h 12mph /  19.3km/h 83% 0.00in /  0mm 12 W/m2
07:30 32.4 °F /  0.2 °C 27.8 °F /  -2.3 °C 30.28in /  1025.3hPa WSW 6mph /  9.7km/h 10mph /  16.1km/h 83% 0.00in /  0mm 22 W/m2
07:40 32.7 °F /  0.4 °C 28.1 °F /  -2.2 °C 30.28in /  1025.3hPa SW 2mph /  3.2km/h 10mph /  16.1km/h 83% 0.00in /  0mm 28 W/m2
07:50 32.5 °F /  0.3 °C 28 °F /  -2.2 °C 30.29in /  1025.6hPa WSW 5mph /  8km/h 12mph /  19.3km/h 83% 0.00in /  0mm 40 W/m2
08:00 32.9 °F /  0.5 °C 28.3 °F /  -2.1 °C 30.29in /  1025.6hPa WSW 2mph /  3.2km/h 8mph /  12.9km/h 83% 0.00in /  0mm 53 W/m2
08:10 33.1 °F /  0.6 °C 28.5 °F /  -1.9 °C 30.29in /  1025.6hPa WNW 2mph /  3.2km/h 6mph /  9.7km/h 83% 0.00in /  0mm 52 W/m2
08:20 33.3 °F /  0.7 °C 28.7 °F /  -1.8 °C 30.29in /  1025.6hPa NNW 1mph /  1.6km/h 4mph /  6.4km/h 83% 0.00in /  0mm 33 W/m2
08:30 33.3 °F /  0.7 °C 28.7 °F /  -1.8 °C 30.29in /  1025.6hPa WSW 1mph /  1.6km/h 3mph /  4.8km/h 83% 0.00in /  0mm 31 W/m2
08:40 33.4 °F /  0.8 °C 29.1 °F /  -1.6 °C 30.28in /  1025.3hPa WSW 2mph /  3.2km/h 5mph /  8km/h 84% 0.00in /  0mm 52 W/m2
08:50 33.6 °F /  0.9 °C 29.3 °F /  -1.5 °C 30.28in /  1025.3hPa WSW 3mph /  4.8km/h 8mph /  12.9km/h 84% 0.00in /  0mm 65 W/m2
09:00 33.8 °F /  1 °C 29.2 °F /  -1.6 °C 30.31in /  1026.3hPa SW 5mph /  8km/h 7mph /  11.3km/h 83% 0.00in /  0mm 72 W/m2
09:10 34 °F /  1.1 °C 29.4 °F /  -1.4 °C 30.31in /  1026.3hPa WSW 3mph /  4.8km/h 7mph /  11.3km/h 83% 0.00in /  0mm 76 W/m2
09:20 34.2 °F /  1.2 °C 29.5 °F /  -1.4 °C 30.28in /  1025.3hPa WSW 3mph /  4.8km/h 6mph /  9.7km/h 83% 0.00in /  0mm 71 W/m2
09:30 34.3 °F /  1.3 °C 29.7 °F /  -1.3 °C 30.28in /  1025.3hPa WSW 5mph /  8km/h 10mph /  16.1km/h 83% 0.00in /  0mm 105 W/m2
09:40 34.9 °F /  1.6 °C 30.2 °F /  -1 °C 30.33in /  1027hPa WSW 6mph /  9.7km/h 10mph /  16.1km/h 83% 0.00in /  0mm 116 W/m2
09:50 35.2 °F /  1.8 °C 30 °F /  -1.1 °C 30.31in /  1026.3hPa SW 6mph /  9.7km/h 10mph /  16.1km/h 81% 0.00in /  0mm 74 W/m2
10:00 35.6 °F /  2 °C 30.4 °F /  -0.9 °C 30.29in /  1025.6hPa SW 3mph /  4.8km/h 8mph /  12.9km/h 81% 0.00in /  0mm 303 W/m2
10:10 37 °F /  2.8 °C 31.8 °F /  -0.1 °C 30.28in /  1025.3hPa SW 5mph /  8km/h 8mph /  12.9km/h 81% 0.00in /  0mm 219 W/m2
10:20 38.3 °F /  3.5 °C 32.4 °F /  0.2 °C 30.27in /  1024.9hPa SW 5mph /  8km/h 7mph /  11.3km/h 79% 0.00in /  0mm 328 W/m2
10:30 39.6 °F /  4.2 °C 33.3 °F /  0.7 °C 30.27in /  1024.9hPa SW 5mph /  8km/h 9mph /  14.5km/h 78% 0.00in /  0mm 338 W/m2
10:40 40.3 °F /  4.6 °C 33.6 °F /  0.9 °C 30.27in /  1024.9hPa SSW 2mph /  3.2km/h 8mph /  12.9km/h 77% 0.00in /  0mm 347 W/m2
10:50 41.4 °F /  5.2 °C 34 °F /  1.1 °C 30.27in /  1024.9hPa SW 2mph /  3.2km/h 6mph /  9.7km/h 75% 0.00in /  0mm 355 W/m2
11:00 42.4 °F /  5.8 °C 34.7 °F /  1.5 °C 30.27in /  1024.9hPa SW 5mph /  8km/h 7mph /  11.3km/h 74% 0.00in /  0mm 361 W/m2
11:10 43.2 °F /  6.2 °C 34.7 °F /  1.5 °C 30.27in /  1024.9hPa SW 6mph /  9.7km/h 13mph /  20.9km/h 72% 0.00in /  0mm 366 W/m2
11:20 43.5 °F /  6.4 °C 34.4 °F /  1.3 °C 30.26in /  1024.6hPa SW 7mph /  11.3km/h 13mph /  20.9km/h 70% 0.00in /  0mm 369 W/m2
11:30 43.5 °F /  6.4 °C 34.4 °F /  1.3 °C 30.26in /  1024.6hPa SW 7mph /  11.3km/h 13mph /  20.9km/h 70% 0.00in /  0mm 371 W/m2
11:40 43.7 °F /  6.5 °C 34.2 °F /  1.2 °C 30.26in /  1024.6hPa SW 8mph /  12.9km/h 15mph /  24.1km/h 69% 0.00in /  0mm 371 W/m2
11:50 44.3 °F /  6.8 °C 34.7 °F /  1.5 °C 30.25in /  1024.3hPa SW 7mph /  11.3km/h 12mph /  19.3km/h 69% 0.00in /  0mm 370 W/m2
12:00 44.4 °F /  6.9 °C 34.5 °F /  1.4 °C 30.24in /  1023.9hPa SW 10mph /  16.1km/h 14mph /  22.5km/h 68% 0.00in /  0mm 368 W/m2
12:10 45.1 °F /  7.3 °C 34.8 °F /  1.6 °C 30.24in /  1023.9hPa SW 7mph /  11.3km/h 11mph /  17.7km/h 67% 0.00in /  0mm 312 W/m2
12:20 45.3 °F /  7.4 °C 35 °F /  1.7 °C 30.24in /  1023.9hPa SW 9mph /  14.5km/h 17mph /  27.4km/h 67% 0.00in /  0mm 359 W/m2
12:30 45.5 °F /  7.5 °C 34.4 °F /  1.3 °C 30.24in /  1023.9hPa SW 8mph /  12.9km/h 13mph /  20.9km/h 65% 0.00in /  0mm 352 W/m2
12:40 45.3 °F /  7.4 °C 34.2 °F /  1.2 °C 30.22in /  1023.2hPa SW 9mph /  14.5km/h 16mph /  25.7km/h 65% 0.00in /  0mm 344 W/m2
12:50 45.7 °F /  7.6 °C 34.6 °F /  1.4 °C 30.23in /  1023.6hPa WSW 10mph /  16.1km/h 15mph /  24.1km/h 65% 0.00in /  0mm 334 W/m2
13:00 45.5 °F /  7.5 °C 34 °F /  1.1 °C 30.22in /  1023.2hPa WSW 9mph /  14.5km/h 16mph /  25.7km/h 64% 0.00in /  0mm 324 W/m2
13:10 46 °F /  7.8 °C 34.5 °F /  1.4 °C 30.22in /  1023.2hPa SW 5mph /  8km/h 15mph /  24.1km/h 64% 0.00in /  0mm 312 W/m2
13:20 46.4 °F /  8 °C 34.1 °F /  1.2 °C 30.22in /  1023.2hPa WSW 6mph /  9.7km/h 13mph /  20.9km/h 62% 0.00in /  0mm 298 W/m2
13:30 46.4 °F /  8 °C 34.1 °F /  1.2 °C 30.22in /  1023.2hPa WSW 7mph /  11.3km/h 15mph /  24.1km/h 62% 0.00in /  0mm 284 W/m2
13:40 46.6 °F /  8.1 °C 33.4 °F /  0.8 °C 30.21in /  1022.9hPa WSW 8mph /  12.9km/h 15mph /  24.1km/h 60% 0.00in /  0mm 268 W/m2
13:50 46.8 °F /  8.2 °C 33.6 °F /  0.9 °C 30.20in /  1022.6hPa WSW 8mph /  12.9km/h 14mph /  22.5km/h 60% 0.00in /  0mm 252 W/m2
14:00 46.4 °F /  8 °C 34.1 °F /  1.2 °C 30.19in /  1022.2hPa WSW 7mph /  11.3km/h 10mph /  16.1km/h 62% 0.00in /  0mm 234 W/m2
14:10 46.4 °F /  8 °C 34.1 °F /  1.2 °C 30.18in /  1021.9hPa SW 6mph /  9.7km/h 11mph /  17.7km/h 62% 0.00in /  0mm 216 W/m2
14:20 46 °F /  7.8 °C 33.7 °F /  0.9 °C 30.18in /  1021.9hPa SW 8mph /  12.9km/h 13mph /  20.9km/h 62% 0.00in /  0mm 197 W/m2
14:30 45.9 °F /  7.7 °C 33.6 °F /  0.9 °C 30.17in /  1021.6hPa SW 8mph /  12.9km/h 13mph /  20.9km/h 62% 0.00in /  0mm 177 W/m2
14:40 45.5 °F /  7.5 °C 33.6 °F /  0.9 °C 30.16in /  1021.2hPa SW 9mph /  14.5km/h 15mph /  24.1km/h 63% 0.00in /  0mm 157 W/m2
14:50 45.1 °F /  7.3 °C 33.3 °F /  0.7 °C 30.17in /  1021.6hPa SW 9mph /  14.5km/h 18mph /  29km/h 63% 0.00in /  0mm 137 W/m2
15:00 45 °F /  7.2 °C 33.1 °F /  0.6 °C 30.16in /  1021.2hPa SW 9mph /  14.5km/h 13mph /  20.9km/h 63% 0.00in /  0mm 116 W/m2
15:10 44.8 °F /  7.1 °C 32.9 °F /  0.5 °C 30.16in /  1021.2hPa SW 8mph /  12.9km/h 14mph /  22.5km/h 63% 0.00in /  0mm 70 W/m2
15:20 44.2 °F /  6.8 °C 32.8 °F /  0.4 °C 30.16in /  1021.2hPa SW 6mph /  9.7km/h 14mph /  22.5km/h 64% 0.00in /  0mm 49 W/m2
15:30 43.9 °F /  6.6 °C 32.5 °F /  0.3 °C 30.16in /  1021.2hPa SW 9mph /  14.5km/h 14mph /  22.5km/h 64% 0.00in /  0mm 33 W/m2
15:40 43.3 °F /  6.3 °C 32 °F /  0 °C 30.16in /  1021.2hPa SW 8mph /  12.9km/h 13mph /  20.9km/h 64% 0.00in /  0mm 27 W/m2
15:50 43 °F /  6.1 °C 31.6 °F /  -0.2 °C 30.16in /  1021.2hPa SW 8mph /  12.9km/h 14mph /  22.5km/h 64% 0.00in /  0mm 22 W/m2
16:00 42.8 °F /  6 °C 31.8 °F /  -0.1 °C 30.15in /  1020.9hPa SW 8mph /  12.9km/h 15mph /  24.1km/h 65% 0.00in /  0mm 7 W/m2
16:10 42.6 °F /  5.9 °C 31.7 °F /  -0.2 °C 30.14in /  1020.5hPa SW 6mph /  9.7km/h 11mph /  17.7km/h 65% 0.00in /  0mm 16 W/m2
16:20 42.3 °F /  5.7 °C 31.3 °F /  -0.4 °C 30.13in /  1020.2hPa SW 7mph /  11.3km/h 14mph /  22.5km/h 65% 0.00in /  0mm 6 W/m2
16:30 42.1 °F /  5.6 °C 31.2 °F /  -0.4 °C 30.13in /  1020.2hPa SW 7mph /  11.3km/h 17mph /  27.4km/h 65% 0.00in /  0mm 0 W/m2
16:40 42.1 °F /  5.6 °C 31.2 °F /  -0.4 °C 30.13in /  1020.2hPa SW 8mph /  12.9km/h 15mph /  24.1km/h 65% 0.00in /  0mm 0 W/m2
16:50 41.9 °F /  5.5 °C 31 °F /  -0.6 °C 30.14in /  1020.5hPa WSW 5mph /  8km/h 15mph /  24.1km/h 65% 0.00in /  0mm 0 W/m2
17:00 41.9 °F /  5.5 °C 31 °F /  -0.6 °C 30.14in /  1020.5hPa SW 7mph /  11.3km/h 13mph /  20.9km/h 65% 0.00in /  0mm 0 W/m2
17:10 41.7 °F /  5.4 °C 31.6 °F /  -0.2 °C 30.13in /  1020.2hPa SW 5mph /  8km/h 10mph /  16.1km/h 67% 0.00in /  0mm 0 W/m2
17:20 41.5 °F /  5.3 °C 31.4 °F /  -0.3 °C 30.13in /  1020.2hPa WSW 6mph /  9.7km/h 11mph /  17.7km/h 67% 0.00in /  0mm 0 W/m2
17:30 41.4 °F /  5.2 °C 31.2 °F /  -0.4 °C 30.13in /  1020.2hPa SW 6mph /  9.7km/h 15mph /  24.1km/h 67% 0.00in /  0mm 0 W/m2
17:40 41.2 °F /  5.1 °C 31 °F /  -0.6 °C 30.12in /  1019.9hPa SW 5mph /  8km/h 9mph /  14.5km/h 67% 0.00in /  0mm 0 W/m2
17:50 41.2 °F /  5.1 °C 31 °F /  -0.6 °C 30.12in /  1019.9hPa SW 3mph /  4.8km/h 8mph /  12.9km/h 67% 0.00in /  0mm 0 W/m2
18:00 41.2 °F /  5.1 °C 31 °F /  -0.6 °C 30.13in /  1020.2hPa WSW 5mph /  8km/h 13mph /  20.9km/h 67% 0.00in /  0mm 0 W/m2
18:10 41.4 °F /  5.2 °C 31.2 °F /  -0.4 °C 30.12in /  1019.9hPa WSW 8mph /  12.9km/h 13mph /  20.9km/h 67% 0.00in /  0mm 0 W/m2
18:20 41.4 °F /  5.2 °C 30.5 °F /  -0.8 °C 30.12in /  1019.9hPa SW 7mph /  11.3km/h 15mph /  24.1km/h 65% 0.00in /  0mm 0 W/m2
18:30 41.4 °F /  5.2 °C 31.2 °F /  -0.4 °C 30.13in /  1020.2hPa SW 3mph /  4.8km/h 9mph /  14.5km/h 67% 0.00in /  0mm 0 W/m2
18:40 41.2 °F /  5.1 °C 31 °F /  -0.6 °C 30.13in /  1020.2hPa WSW 5mph /  8km/h 8mph /  12.9km/h 67% 0.00in /  0mm 0 W/m2
18:50 40.9 °F /  4.9 °C 30.7 °F /  -0.7 °C 30.13in /  1020.2hPa West 2mph /  3.2km/h 6mph /  9.7km/h 67% 0.00in /  0mm 0 W/m2
19:00 40.6 °F /  4.8 °C 30.5 °F /  -0.8 °C 30.14in /  1020.5hPa West 3mph /  4.8km/h 8mph /  12.9km/h 67% 0.00in /  0mm 0 W/m2
19:10 40.6 °F /  4.8 °C 30.5 °F /  -0.8 °C 30.14in /  1020.5hPa SW 5mph /  8km/h 11mph /  17.7km/h 67% 0.00in /  0mm 0 W/m2
19:20 40.8 °F /  4.9 °C 30.7 °F /  -0.7 °C 30.14in /  1020.5hPa WSW 5mph /  8km/h 9mph /  14.5km/h 67% 0.00in /  0mm 0 W/m2
19:30 41.4 °F /  5.2 °C 32 °F /  0 °C 30.14in /  1020.5hPa WSW 8mph /  12.9km/h 21mph /  33.8km/h 69% 0.00in /  0mm 0 W/m2
19:40 42.3 °F /  5.7 °C 32.8 °F /  0.4 °C 30.13in /  1020.2hPa WSW 10mph /  16.1km/h 15mph /  24.1km/h 69% 0.00in /  0mm 0 W/m2
19:50 42.4 °F /  5.8 °C 33 °F /  0.6 °C 30.13in /  1020.2hPa SW 9mph /  14.5km/h 17mph /  27.4km/h 69% 0.00in /  0mm 0 W/m2
20:00 42.4 °F /  5.8 °C 33 °F /  0.6 °C 30.13in /  1020.2hPa SW 9mph /  14.5km/h 15mph /  24.1km/h 69% 0.00in /  0mm 0 W/m2
20:10 42.8 °F /  6 °C 33.3 °F /  0.7 °C 30.13in /  1020.2hPa SW 5mph /  8km/h 16mph /  25.7km/h 69% 0.00in /  0mm 0 W/m2
20:20 42.8 °F /  6 °C 33 °F /  0.6 °C 30.13in /  1020.2hPa WSW 8mph /  12.9km/h 14mph /  22.5km/h 68% 0.00in /  0mm 0 W/m2
20:30 43.1 °F /  6.2 °C 33.3 °F /  0.7 °C 30.14in /  1020.5hPa West 8mph /  12.9km/h 16mph /  25.7km/h 68% 0.00in /  0mm 0 W/m2
20:40 43 °F /  6.1 °C 33.5 °F /  0.8 °C 30.15in /  1020.9hPa WSW 8mph /  12.9km/h 15mph /  24.1km/h 69% 0.00in /  0mm 0 W/m2
20:50 42.6 °F /  5.9 °C 34.9 °F /  1.6 °C 30.15in /  1020.9hPa West 9mph /  14.5km/h 17mph /  27.4km/h 74% 0.00in /  0mm 0 W/m2
21:00 42.1 °F /  5.6 °C 35.1 °F /  1.7 °C 30.16in /  1021.2hPa West 8mph /  12.9km/h 13mph /  20.9km/h 76% 0.00in /  0mm 0 W/m2
21:10 41.7 °F /  5.4 °C 35.7 °F /  2.1 °C 30.17in /  1021.6hPa WSW 9mph /  14.5km/h 15mph /  24.1km/h 79% 0.00in /  0mm 0 W/m2
21:20 41.1 °F /  5.1 °C 36.1 °F /  2.3 °C 30.17in /  1021.6hPa WSW 7mph /  11.3km/h 14mph /  22.5km/h 82% 0.00in /  0mm 0 W/m2
21:30 40.6 °F /  4.8 °C 36.2 °F /  2.3 °C 30.17in /  1021.6hPa WSW 8mph /  12.9km/h 12mph /  19.3km/h 84% 0.00in /  0mm 0 W/m2
21:40 40.1 °F /  4.5 °C 36.2 °F /  2.3 °C 30.17in /  1021.6hPa WSW 6mph /  9.7km/h 14mph /  22.5km/h 86% 0.00in /  0mm 0 W/m2
21:50 39.7 °F /  4.3 °C 36.5 °F /  2.5 °C 30.17in /  1021.6hPa WSW 5mph /  8km/h 12mph /  19.3km/h 88% 0.00in /  0mm 0 W/m2
22:10 39.2 °F /  4 °C 36.5 °F /  2.5 °C 30.17in /  1021.6hPa WSW 6mph /  9.7km/h 9mph /  14.5km/h 90% 0.00in /  0mm 0 W/m2
22:20 39 °F /  3.9 °C 36.6 °F /  2.6 °C 30.17in /  1021.6hPa WSW 6mph /  9.7km/h 8mph /  12.9km/h 91% 0.00in /  0mm 0 W/m2
22:30 38.6 °F /  3.7 °C 36.2 °F /  2.3 °C 30.17in /  1021.6hPa WSW 6mph /  9.7km/h 10mph /  16.1km/h 91% 0.03in /  0.76mm 0 W/m2
22:40 38.3 °F /  3.5 °C 36.5 °F /  2.5 °C 30.17in /  1021.6hPa SW 6mph /  9.7km/h 10mph /  16.1km/h 93% 0.00in /  0mm 0 W/m2
22:50 38.1 °F /  3.4 °C 36.3 °F /  2.4 °C 30.18in /  1021.9hPa WSW 5mph /  8km/h 8mph /  12.9km/h 93% 0.00in /  0mm 0 W/m2
23:00 37.9 °F /  3.3 °C 36.1 °F /  2.3 °C 30.17in /  1021.6hPa SW 3mph /  4.8km/h 7mph /  11.3km/h 93% 0.00in /  0mm 0 W/m2
23:10 38.1 °F /  3.4 °C 36.3 °F /  2.4 °C 30.18in /  1021.9hPa SW 3mph /  4.8km/h 8mph /  12.9km/h 93% 0.00in /  0mm 0 W/m2
23:20 38.2 °F /  3.4 °C 36.6 °F /  2.6 °C 30.18in /  1021.9hPa WSW 5mph /  8km/h 7mph /  11.3km/h 94% 0.00in /  0mm 0 W/m2
23:30 38.3 °F /  3.5 °C 36.7 °F /  2.6 °C 30.18in /  1021.9hPa WSW 3mph /  4.8km/h 6mph /  9.7km/h 94% 0.00in /  0mm 0 W/m2
23:40 38.5 °F /  3.6 °C 36.9 °F /  2.7 °C 30.18in /  1021.9hPa WSW 3mph /  4.8km/h 6mph /  9.7km/h 94% 0.00in /  0mm 0 W/m2
23:50 38.5 °F /  3.6 °C 36.6 °F /  2.6 °C 30.18in /  1021.9hPa WSW 2mph /  3.2km/h 7mph /  11.3km/h 93% 0.00in /  0mm 0 W/m2
Knjazevac, Serbia
Compliments of Weather Underground - 2 mb